Chitose — JD2925 — position and weather

sailwx.info

Track history (hours):
 
Tides and Currents Weather Stations Pressure Air Temp Water Temp Dewpoint Dewpoint Depression Visibility Wind Speed Wind Dir Waves Ship Positions

Chitose

Last reported at 2016-Jul-30 06:28 UTC. Time now 2016-Jul-30 09:19 UTC.
Position N 35°27' E 139°40'.

Length 33 m; draft 3.8 m.

Type: Tug. MMSI: 431000953.

Date/timePositionNaut miles runAvg speedWind from/ knotsBaromVisibWave heightAir tempDewpointWater temp
2016-Jul-30 06:28N 35°27' E 139°40'0 0.0
2016-Jul-30 05:34N 35°27' E 139°40'0 0.0
2016-Jul-30 04:34N 35°27' E 139°40'2 2.3
2016-Jul-30 03:33N 35°25' E 139°42'3 3.2
2016-Jul-30 02:34N 35°24' E 139°38'3 3.5
2016-Jul-30 01:34N 35°26' E 139°42'2 2.4
2016-Jul-30 00:34N 35°27' E 139°39'0 0.0
2016-Jul-29 23:33N 35°27' E 139°39'1 0.9
2016-Jul-29 22:33N 35°27' E 139°41'3 2.6
2016-Jul-29 21:33N 35°26' E 139°43'3 3.3
2016-Jul-29 20:34N 35°27' E 139°40'0 0.0
2016-Jul-29 09:14N 35°27' E 139°40'2 2.7
2016-Jul-29 08:33N 35°25' E 139°41'1 1.2
2016-Jul-29 07:33N 35°26' E 139°42'2 0.2
2016-Jul-29 00:32N 35°27' E 139°40'4 4.5
2016-Jul-28 23:34N 35°29' E 139°44'4 4.4
2016-Jul-28 22:34N 35°27' E 139°40'1 0.0
2016-Jul-28 03:34N 35°27' E 139°40'3 2.6
2016-Jul-28 02:34N 35°26' E 139°43'3 3.2
2016-Jul-28 01:34N 35°27' E 139°39'0 0.0
2016-Jul-28 00:34N 35°27' E 139°39'0 0.0
2016-Jul-27 23:34N 35°27' E 139°39'0 0.0
2016-Jul-27 22:34N 35°27' E 139°39'3 2.5
2016-Jul-27 21:34N 35°28' E 139°43'3 2.5
2016-Jul-27 20:34N 35°27' E 139°40'0 0.0
2016-Jul-27 09:33N 35°27' E 139°40'7 7.2
2016-Jul-27 08:34N 35°30' E 139°48'4 3.9
2016-Jul-27 07:33N 35°29' E 139°43'4 3.5
2016-Jul-27 06:33N 35°27' E 139°40'0 0.0
2016-Jul-27 05:33N 35°27' E 139°40'0 0.1
2016-Jul-27 04:33N 35°27' E 139°39'3 3.3
2016-Jul-27 03:34N 35°24' E 139°38'0 0.1
2016-Jul-27 02:33N 35°24' E 139°38'3 3.0
2016-Jul-27 01:33N 35°23' E 139°41'4 4.0
2016-Jul-27 00:33N 35°27' E 139°41'1 1.5
2016-Jul-26 23:33N 35°27' E 139°40'0 0.0
2016-Jul-25 23:34N 35°27' E 139°39'3 3.1
2016-Jul-25 22:34N 35°27' E 139°43'1 0.9
2016-Jul-25 21:33N 35°27' E 139°42'1 0.9
2016-Jul-25 20:33N 35°28' E 139°41'1 0.6
2016-Jul-25 19:33N 35°28' E 139°42'0 0.0
2016-Jul-25 18:33N 35°28' E 139°42'0 0.0
2016-Jul-25 17:33N 35°28' E 139°42'0 0.0
2016-Jul-25 16:33N 35°28' E 139°42'2 1.8
2016-Jul-25 15:34N 35°26' E 139°41'1 1.1
2016-Jul-25 14:33N 35°27' E 139°42'1 0.5
2016-Jul-25 13:33N 35°26' E 139°42'2 2.0
2016-Jul-25 12:33N 35°27' E 139°39'0 0.0
2016-Jul-25 11:33N 35°27' E 139°39'1 0.8
2016-Jul-25 10:34N 35°27' E 139°40'1 0.9
2016-Jul-25 09:33N 35°28' E 139°41'1 1.2
2016-Jul-25 08:34N 35°27' E 139°41'0 0.4
2016-Jul-25 07:33N 35°27' E 139°41'2 1.7
2016-Jul-25 06:33N 35°26' E 139°41'1 0.8
2016-Jul-25 05:34N 35°26' E 139°42'2 1.7
2016-Jul-25 04:33N 35°27' E 139°40'0 0.0
2016-Jul-25 03:33N 35°27' E 139°40'0 0.0
2016-Jul-25 02:33N 35°27' E 139°40'0 0.0
2016-Jul-25 01:33N 35°27' E 139°40'0 0.0
2016-Jul-25 00:33N 35°27' E 139°40'0 0.0
2016-Jul-24 23:33N 35°27' E 139°40'0 0.0
2016-Jul-23 21:21N 35°27' E 139°40'2 2.3
2016-Jul-23 20:33N 35°28' E 139°42'0 0.5
2016-Jul-23 19:33N 35°27' E 139°42'0 0.0
2016-Jul-23 18:33N 35°27' E 139°42'4 3.6
2016-Jul-23 17:34N 35°24' E 139°41'4 3.6
2016-Jul-23 16:33N 35°28' E 139°40'0 0.0
2016-Jul-23 15:33N 35°28' E 139°40'0 0.0
2016-Jul-23 14:33N 35°28' E 139°40'4 3.5
2016-Jul-23 13:33N 35°29' E 139°44'0 0.1
2016-Jul-23 12:33N 35°29' E 139°45'2 2.3
2016-Jul-23 11:34N 35°27' E 139°45'2 2.3
2016-Jul-23 10:33N 35°29' E 139°45'4 3.5
2016-Jul-23 09:33N 35°27' E 139°41'1 1.0
2016-Jul-23 08:33N 35°27' E 139°39'1 1.2
2016-Jul-23 07:34N 35°27' E 139°41'1 1.2
2016-Jul-23 06:33N 35°27' E 139°40'0 0.0
2016-Jul-23 04:33N 35°27' E 139°40'0 0.0
2016-Jul-23 03:33N 35°27' E 139°40'0 0.0
2016-Jul-23 02:33N 35°27' E 139°40'0 0.0
2016-Jul-23 01:33N 35°27' E 139°40'0 0.0
2016-Jul-23 00:33N 35°27' E 139°40'0 0.0
2016-Jul-22 23:33N 35°27' E 139°40'0 0.0
2016-Jul-22 22:33N 35°27' E 139°40'0 0.0
2016-Jul-22 21:34N 35°27' E 139°40'0 0.0
2016-Jul-22 20:33N 35°27' E 139°40'0 0.0
2016-Jul-22 19:34N 35°27' E 139°40'0 0.0
2016-Jul-22 18:33N 35°27' E 139°40'0 0.0
2016-Jul-22 17:33N 35°27' E 139°40'0 0.0
2016-Jul-22 16:34N 35°27' E 139°40'0 0.0
2016-Jul-22 15:33N 35°27' E 139°40'0 0.0
2016-Jul-22 14:33N 35°27' E 139°40'0 0.0
2016-Jul-22 13:33N 35°27' E 139°40'0 0.0
2016-Jul-22 12:34N 35°27' E 139°40'0 0.0
2016-Jul-22 11:33N 35°27' E 139°40'0 0.0
2016-Jul-22 10:33N 35°27' E 139°40'0 0.0
2016-Jul-22 09:34N 35°27' E 139°40'0 0.0
2016-Jul-22 08:33N 35°27' E 139°40'0 0.0
2016-Jul-22 07:33N 35°27' E 139°40'0 0.0
2016-Jul-22 05:33N 35°27' E 139°40'0 0.0
2016-Jul-22 04:33N 35°27' E 139°40'0 0.0
2016-Jul-22 03:33N 35°27' E 139°40'0 0.0
2016-Jul-22 02:33N 35°27' E 139°40'0 0.0
2016-Jul-22 01:33N 35°27' E 139°40'0 0.0
2016-Jul-22 00:33N 35°27' E 139°40'0 0.0
2016-Jul-21 23:33N 35°27' E 139°40'2 2.1
2016-Jul-21 22:33N 35°28' E 139°42'1 1.4
2016-Jul-21 21:33N 35°27' E 139°43'3 2.9
2016-Jul-21 20:33N 35°27' E 139°40'0 0.0
2016-Jul-21 07:23N 35°27' E 139°40'2 2.0
2016-Jul-21 06:34N 35°28' E 139°41'1 0.8
2016-Jul-21 05:34N 35°28' E 139°40'0 0.0
2016-Jul-21 04:34N 35°28' E 139°40'0 0.0
2016-Jul-21 03:33N 35°28' E 139°40'0 0.0
2016-Jul-21 02:33N 35°28' E 139°40'0 0.0
2016-Jul-21 01:33N 35°28' E 139°40'0 0.0
2016-Jul-21 00:33N 35°28' E 139°40'1 1.0
2016-Jul-20 23:33N 35°27' E 139°41'5 4.7
2016-Jul-20 22:34N 35°23' E 139°39'1 0.9
2016-Jul-20 21:33N 35°23' E 139°40'4 3.9
2016-Jul-20 20:34N 35°27' E 139°40'0 0.0
2016-Jul-20 07:06N 35°27' E 139°40'0 0.0
2016-Jul-20 06:34N 35°27' E 139°40'  
Track history (hours):
 
Tides and Currents Weather Stations Pressure Air Temp Water Temp Dewpoint Dewpoint Depression Visibility Wind Speed Wind Dir Waves Ship Positions

Chitose

Last reported at 2016-Jul-30 06:28 UTC. Time now 2016-Jul-30 09:19 UTC.
Position N 35°27' E 139°40'.

Length 33 m; draft 3.8 m.

Type: Tug. MMSI: 431000953.

Date/timePositionNaut miles runAvg speedWind from/ knotsBaromVisibWave heightAir tempDewpointWater temp
2016-Jul-30 06:28N 35°27' E 139°40'0 0.0
2016-Jul-30 05:34N 35°27' E 139°40'0 0.0
2016-Jul-30 04:34N 35°27' E 139°40'2 2.3
2016-Jul-30 03:33N 35°25' E 139°42'3 3.2
2016-Jul-30 02:34N 35°24' E 139°38'3 3.5
2016-Jul-30 01:34N 35°26' E 139°42'2 2.4
2016-Jul-30 00:34N 35°27' E 139°39'0 0.0
2016-Jul-29 23:33N 35°27' E 139°39'1 0.9
2016-Jul-29 22:33N 35°27' E 139°41'3 2.6
2016-Jul-29 21:33N 35°26' E 139°43'3 3.3
2016-Jul-29 20:34N 35°27' E 139°40'0 0.0
2016-Jul-29 09:14N 35°27' E 139°40'2 2.7
2016-Jul-29 08:33N 35°25' E 139°41'1 1.2
2016-Jul-29 07:33N 35°26' E 139°42'2 0.2
2016-Jul-29 00:32N 35°27' E 139°40'4 4.5
2016-Jul-28 23:34N 35°29' E 139°44'4 4.4
2016-Jul-28 22:34N 35°27' E 139°40'1 0.0
2016-Jul-28 03:34N 35°27' E 139°40'3 2.6
2016-Jul-28 02:34N 35°26' E 139°43'3 3.2
2016-Jul-28 01:34N 35°27' E 139°39'0 0.0
2016-Jul-28 00:34N 35°27' E 139°39'0 0.0
2016-Jul-27 23:34N 35°27' E 139°39'0 0.0
2016-Jul-27 22:34N 35°27' E 139°39'3 2.5
2016-Jul-27 21:34N 35°28' E 139°43'3 2.5
2016-Jul-27 20:34N 35°27' E 139°40'0 0.0
2016-Jul-27 09:33N 35°27' E 139°40'7 7.2
2016-Jul-27 08:34N 35°30' E 139°48'4 3.9
2016-Jul-27 07:33N 35°29' E 139°43'4 3.5
2016-Jul-27 06:33N 35°27' E 139°40'0 0.0
2016-Jul-27 05:33N 35°27' E 139°40'0 0.1
2016-Jul-27 04:33N 35°27' E 139°39'3 3.3
2016-Jul-27 03:34N 35°24' E 139°38'0 0.1
2016-Jul-27 02:33N 35°24' E 139°38'3 3.0
2016-Jul-27 01:33N 35°23' E 139°41'4 4.0
2016-Jul-27 00:33N 35°27' E 139°41'1 1.5
2016-Jul-26 23:33N 35°27' E 139°40'0 0.0
2016-Jul-25 23:34N 35°27' E 139°39'3 3.1
2016-Jul-25 22:34N 35°27' E 139°43'1 0.9
2016-Jul-25 21:33N 35°27' E 139°42'1 0.9
2016-Jul-25 20:33N 35°28' E 139°41'1 0.6
2016-Jul-25 19:33N 35°28' E 139°42'0 0.0
2016-Jul-25 18:33N 35°28' E 139°42'0 0.0
2016-Jul-25 17:33N 35°28' E 139°42'0 0.0
2016-Jul-25 16:33N 35°28' E 139°42'2 1.8
2016-Jul-25 15:34N 35°26' E 139°41'1 1.1
2016-Jul-25 14:33N 35°27' E 139°42'1 0.5
2016-Jul-25 13:33N 35°26' E 139°42'2 2.0
2016-Jul-25 12:33N 35°27' E 139°39'0 0.0
2016-Jul-25 11:33N 35°27' E 139°39'1 0.8
2016-Jul-25 10:34N 35°27' E 139°40'1 0.9
2016-Jul-25 09:33N 35°28' E 139°41'1 1.2
2016-Jul-25 08:34N 35°27' E 139°41'0 0.4
2016-Jul-25 07:33N 35°27' E 139°41'2 1.7
2016-Jul-25 06:33N 35°26' E 139°41'1 0.8
2016-Jul-25 05:34N 35°26' E 139°42'2 1.7
2016-Jul-25 04:33N 35°27' E 139°40'0 0.0
2016-Jul-25 03:33N 35°27' E 139°40'0 0.0
2016-Jul-25 02:33N 35°27' E 139°40'0 0.0
2016-Jul-25 01:33N 35°27' E 139°40'0 0.0
2016-Jul-25 00:33N 35°27' E 139°40'0 0.0
2016-Jul-24 23:33N 35°27' E 139°40'0 0.0
2016-Jul-23 21:21N 35°27' E 139°40'2 2.3
2016-Jul-23 20:33N 35°28' E 139°42'0 0.5
2016-Jul-23 19:33N 35°27' E 139°42'0 0.0
2016-Jul-23 18:33N 35°27' E 139°42'4 3.6
2016-Jul-23 17:34N 35°24' E 139°41'4 3.6
2016-Jul-23 16:33N 35°28' E 139°40'0 0.0
2016-Jul-23 15:33N 35°28' E 139°40'0 0.0
2016-Jul-23 14:33N 35°28' E 139°40'4 3.5
2016-Jul-23 13:33N 35°29' E 139°44'0 0.1
2016-Jul-23 12:33N 35°29' E 139°45'2 2.3
2016-Jul-23 11:34N 35°27' E 139°45'2 2.3
2016-Jul-23 10:33N 35°29' E 139°45'4 3.5
2016-Jul-23 09:33N 35°27' E 139°41'1 1.0
2016-Jul-23 08:33N 35°27' E 139°39'1 1.2
2016-Jul-23 07:34N 35°27' E 139°41'1 1.2
2016-Jul-23 06:33N 35°27' E 139°40'0 0.0
2016-Jul-23 04:33N 35°27' E 139°40'0 0.0
2016-Jul-23 03:33N 35°27' E 139°40'0 0.0
2016-Jul-23 02:33N 35°27' E 139°40'0 0.0
2016-Jul-23 01:33N 35°27' E 139°40'0 0.0
2016-Jul-23 00:33N 35°27' E 139°40'0 0.0
2016-Jul-22 23:33N 35°27' E 139°40'0 0.0
2016-Jul-22 22:33N 35°27' E 139°40'0 0.0
2016-Jul-22 21:34N 35°27' E 139°40'0 0.0
2016-Jul-22 20:33N 35°27' E 139°40'0 0.0
2016-Jul-22 19:34N 35°27' E 139°40'0 0.0
2016-Jul-22 18:33N 35°27' E 139°40'0 0.0
2016-Jul-22 17:33N 35°27' E 139°40'0 0.0
2016-Jul-22 16:34N 35°27' E 139°40'0 0.0
2016-Jul-22 15:33N 35°27' E 139°40'0 0.0
2016-Jul-22 14:33N 35°27' E 139°40'0 0.0
2016-Jul-22 13:33N 35°27' E 139°40'0 0.0
2016-Jul-22 12:34N 35°27' E 139°40'0 0.0
2016-Jul-22 11:33N 35°27' E 139°40'0 0.0
2016-Jul-22 10:33N 35°27' E 139°40'0 0.0
2016-Jul-22 09:34N 35°27' E 139°40'0 0.0
2016-Jul-22 08:33N 35°27' E 139°40'0 0.0
2016-Jul-22 07:33N 35°27' E 139°40'0 0.0
2016-Jul-22 05:33N 35°27' E 139°40'0 0.0
2016-Jul-22 04:33N 35°27' E 139°40'0 0.0
2016-Jul-22 03:33N 35°27' E 139°40'0 0.0
2016-Jul-22 02:33N 35°27' E 139°40'0 0.0
2016-Jul-22 01:33N 35°27' E 139°40'0 0.0
2016-Jul-22 00:33N 35°27' E 139°40'0 0.0
2016-Jul-21 23:33N 35°27' E 139°40'2 2.1
2016-Jul-21 22:33N 35°28' E 139°42'1 1.4
2016-Jul-21 21:33N 35°27' E 139°43'3 2.9
2016-Jul-21 20:33N 35°27' E 139°40'0 0.0
2016-Jul-21 07:23N 35°27' E 139°40'2 2.0
2016-Jul-21 06:34N 35°28' E 139°41'1 0.8
2016-Jul-21 05:34N 35°28' E 139°40'0 0.0
2016-Jul-21 04:34N 35°28' E 139°40'0 0.0
2016-Jul-21 03:33N 35°28' E 139°40'0 0.0
2016-Jul-21 02:33N 35°28' E 139°40'0 0.0
2016-Jul-21 01:33N 35°28' E 139°40'0 0.0
2016-Jul-21 00:33N 35°28' E 139°40'1 1.0
2016-Jul-20 23:33N 35°27' E 139°41'5 4.7
2016-Jul-20 22:34N 35°23' E 139°39'1 0.9
2016-Jul-20 21:33N 35°23' E 139°40'4 3.9
2016-Jul-20 20:34N 35°27' E 139°40'0 0.0
2016-Jul-20 07:06N 35°27' E 139°40'0 0.0
2016-Jul-20 06:34N 35°27' E 139°40'  

Dump ship's entire track history